sensor_id;sensor_type;location;lat;lon;timestamp;P1;durP1;ratioP1;P2;durP2;ratioP2
51714;SDS011;39115;59.332;18.034;2023-02-27T00:01:13;4.13;;;1.05;;
51714;SDS011;39115;59.332;18.034;2023-02-27T00:03:33;4.35;;;1.83;;
51714;SDS011;39115;59.332;18.034;2023-02-27T00:05:54;3.05;;;0.82;;
51714;SDS011;39115;59.332;18.034;2023-02-27T00:08:15;1.52;;;0.50;;
51714;SDS011;39115;59.332;18.034;2023-02-27T00:10:36;2.17;;;0.60;;
51714;SDS011;39115;59.332;18.034;2023-02-27T00:12:57;2.97;;;0.60;;
51714;SDS011;39115;59.332;18.034;2023-02-27T00:15:18;3.08;;;0.70;;
51714;SDS011;39115;59.332;18.034;2023-02-27T00:17:39;4.07;;;0.68;;
51714;SDS011;39115;59.332;18.034;2023-02-27T00:20:00;4.47;;;0.57;;
51714;SDS011;39115;59.332;18.034;2023-02-27T00:22:21;1.85;;;0.43;;
51714;SDS011;39115;59.332;18.034;2023-02-27T00:24:41;2.42;;;0.40;;
51714;SDS011;39115;59.332;18.034;2023-02-27T00:27:02;2.70;;;0.60;;
51714;SDS011;39115;59.332;18.034;2023-02-27T00:29:22;2.95;;;0.95;;
51714;SDS011;39115;59.332;18.034;2023-02-27T00:31:43;5.35;;;0.80;;
51714;SDS011;39115;59.332;18.034;2023-02-27T00:34:03;5.22;;;0.95;;
51714;SDS011;39115;59.332;18.034;2023-02-27T00:36:24;6.93;;;0.70;;
51714;SDS011;39115;59.332;18.034;2023-02-27T00:38:44;4.97;;;0.70;;
51714;SDS011;39115;59.332;18.034;2023-02-27T00:41:05;3.30;;;0.60;;
51714;SDS011;39115;59.332;18.034;2023-02-27T00:43:25;3.78;;;0.50;;
51714;SDS011;39115;59.332;18.034;2023-02-27T00:45:47;2.92;;;0.50;;
51714;SDS011;39115;59.332;18.034;2023-02-27T00:48:07;1.75;;;0.52;;
51714;SDS011;39115;59.332;18.034;2023-02-27T00:50:28;3.30;;;0.60;;
51714;SDS011;39115;59.332;18.034;2023-02-27T00:52:48;2.35;;;0.40;;
51714;SDS011;39115;59.332;18.034;2023-02-27T00:55:09;3.20;;;0.50;;
51714;SDS011;39115;59.332;18.034;2023-02-27T00:57:30;3.40;;;0.47;;
51714;SDS011;39115;59.332;18.034;2023-02-27T00:59:50;1.48;;;0.65;;
51714;SDS011;39115;59.332;18.034;2023-02-27T01:02:11;2.67;;;0.40;;
51714;SDS011;39115;59.332;18.034;2023-02-27T01:04:32;6.18;;;0.70;;
51714;SDS011;39115;59.332;18.034;2023-02-27T01:06:52;2.70;;;0.40;;
51714;SDS011;39115;59.332;18.034;2023-02-27T01:09:13;3.50;;;0.70;;
51714;SDS011;39115;59.332;18.034;2023-02-27T01:11:33;4.10;;;0.60;;
51714;SDS011;39115;59.332;18.034;2023-02-27T01:13:54;1.42;;;0.60;;
51714;SDS011;39115;59.332;18.034;2023-02-27T01:16:15;3.42;;;0.50;;
51714;SDS011;39115;59.332;18.034;2023-02-27T01:18:35;3.42;;;0.50;;
51714;SDS011;39115;59.332;18.034;2023-02-27T01:20:56;5.50;;;0.60;;
51714;SDS011;39115;59.332;18.034;2023-02-27T01:23:16;2.55;;;0.50;;
51714;SDS011;39115;59.332;18.034;2023-02-27T01:25:37;5.40;;;0.60;;
51714;SDS011;39115;59.332;18.034;2023-02-27T01:27:57;3.35;;;0.50;;
51714;SDS011;39115;59.332;18.034;2023-02-27T01:30:18;1.48;;;0.65;;
51714;SDS011;39115;59.332;18.034;2023-02-27T01:32:38;1.98;;;0.70;;
51714;SDS011;39115;59.332;18.034;2023-02-27T01:34:59;4.60;;;0.60;;
51714;SDS011;39115;59.332;18.034;2023-02-27T01:37:19;3.38;;;0.52;;
51714;SDS011;39115;59.332;18.034;2023-02-27T01:39:40;2.88;;;0.70;;
51714;SDS011;39115;59.332;18.034;2023-02-27T01:42:01;2.58;;;0.82;;
51714;SDS011;39115;59.332;18.034;2023-02-27T01:44:24;2.08;;;0.50;;
51714;SDS011;39115;59.332;18.034;2023-02-27T01:46:46;3.70;;;0.50;;
51714;SDS011;39115;59.332;18.034;2023-02-27T01:49:18;4.25;;;0.65;;
51714;SDS011;39115;59.332;18.034;2023-02-27T01:51:50;2.05;;;0.75;;
51714;SDS011;39115;59.332;18.034;2023-02-27T01:54:35;3.58;;;0.52;;
51714;SDS011;39115;59.332;18.034;2023-02-27T01:56:59;2.35;;;0.45;;
51714;SDS011;39115;59.332;18.034;2023-02-27T01:59:22;2.35;;;1.20;;
51714;SDS011;39115;59.332;18.034;2023-02-27T02:01:42;4.05;;;0.60;;
51714;SDS011;39115;59.332;18.034;2023-02-27T02:06:43;3.40;;;0.43;;
51714;SDS011;39115;59.332;18.034;2023-02-27T02:09:06;3.05;;;0.50;;
51714;SDS011;39115;59.332;18.034;2023-02-27T02:11:30;3.30;;;0.40;;
51714;SDS011;39115;59.332;18.034;2023-02-27T02:13:52;2.72;;;0.50;;
51714;SDS011;39115;59.332;18.034;2023-02-27T02:21:49;2.35;;;0.52;;
51714;SDS011;39115;59.332;18.034;2023-02-27T02:34:56;1.85;;;0.63;;
51714;SDS011;39115;59.332;18.034;2023-02-27T02:37:24;3.47;;;0.50;;
51714;SDS011;39115;59.332;18.034;2023-02-27T02:42:44;4.00;;;0.50;;
51714;SDS011;39115;59.332;18.034;2023-02-27T02:45:21;3.30;;;0.40;;
51714;SDS011;39115;59.332;18.034;2023-02-27T02:47:45;1.65;;;0.50;;
51714;SDS011;39115;59.332;18.034;2023-02-27T02:55:20;2.35;;;0.98;;
51714;SDS011;39115;59.332;18.034;2023-02-27T02:57:47;4.30;;;0.50;;
51714;SDS011;39115;59.332;18.034;2023-02-27T03:00:18;2.60;;;0.60;;
51714;SDS011;39115;59.332;18.034;2023-02-27T03:02:44;1.50;;;0.50;;
51714;SDS011;39115;59.332;18.034;2023-02-27T03:10:06;1.23;;;0.60;;
51714;SDS011;39115;59.332;18.034;2023-02-27T03:12:30;7.05;;;0.57;;
51714;SDS011;39115;59.332;18.034;2023-02-27T03:14:54;2.85;;;0.43;;
51714;SDS011;39115;59.332;18.034;2023-02-27T03:17:42;4.03;;;0.40;;
51714;SDS011;39115;59.332;18.034;2023-02-27T03:20:34;1.42;;;0.40;;
51714;SDS011;39115;59.332;18.034;2023-02-27T03:23:00;2.65;;;0.40;;
51714;SDS011;39115;59.332;18.034;2023-02-27T03:25:24;2.67;;;0.43;;
51714;SDS011;39115;59.332;18.034;2023-02-27T03:28:00;3.75;;;0.75;;
51714;SDS011;39115;59.332;18.034;2023-02-27T03:30:34;0.55;;;0.40;;
51714;SDS011;39115;59.332;18.034;2023-02-27T03:33:41;3.60;;;0.80;;
51714;SDS011;39115;59.332;18.034;2023-02-27T03:35:49;6.13;;;0.88;;
51714;SDS011;39115;59.332;18.034;2023-02-27T03:46:26;2.20;;;0.47;;
51714;SDS011;39115;59.332;18.034;2023-02-27T03:48:47;3.25;;;0.57;;
51714;SDS011;39115;59.332;18.034;2023-02-27T03:51:08;2.88;;;1.23;;
51714;SDS011;39115;59.332;18.034;2023-02-27T03:53:36;3.80;;;0.38;;
51714;SDS011;39115;59.332;18.034;2023-02-27T03:56:03;2.45;;;1.20;;
51714;SDS011;39115;59.332;18.034;2023-02-27T03:58:26;2.10;;;0.50;;
51714;SDS011;39115;59.332;18.034;2023-02-27T04:00:47;5.85;;;0.70;;
51714;SDS011;39115;59.332;18.034;2023-02-27T04:03:08;3.42;;;0.40;;
51714;SDS011;39115;59.332;18.034;2023-02-27T04:05:28;2.35;;;0.43;;
51714;SDS011;39115;59.332;18.034;2023-02-27T04:10:55;1.85;;;0.43;;
51714;SDS011;39115;59.332;18.034;2023-02-27T04:16:01;4.90;;;0.50;;
51714;SDS011;39115;59.332;18.034;2023-02-27T04:23:56;3.60;;;0.77;;
51714;SDS011;39115;59.332;18.034;2023-02-27T04:26:40;2.53;;;0.40;;
51714;SDS011;39115;59.332;18.034;2023-02-27T04:29:17;0.52;;;0.30;;
51714;SDS011;39115;59.332;18.034;2023-02-27T04:34:22;1.67;;;0.30;;
51714;SDS011;39115;59.332;18.034;2023-02-27T04:36:56;2.30;;;0.40;;
51714;SDS011;39115;59.332;18.034;2023-02-27T04:39:35;1.75;;;0.40;;
51714;SDS011;39115;59.332;18.034;2023-02-27T04:42:20;4.93;;;0.40;;
51714;SDS011;39115;59.332;18.034;2023-02-27T04:44:44;0.88;;;0.40;;
51714;SDS011;39115;59.332;18.034;2023-02-27T04:47:09;4.03;;;0.95;;
51714;SDS011;39115;59.332;18.034;2023-02-27T04:49:34;1.20;;;0.40;;
51714;SDS011;39115;59.332;18.034;2023-02-27T04:52:00;2.10;;;0.40;;
51714;SDS011;39115;59.332;18.034;2023-02-27T04:54:27;2.45;;;0.50;;
51714;SDS011;39115;59.332;18.034;2023-02-27T04:56:54;2.72;;;0.40;;
51714;SDS011;39115;59.332;18.034;2023-02-27T04:59:19;1.83;;;0.50;;
51714;SDS011;39115;59.332;18.034;2023-02-27T05:04:44;0.50;;;0.25;;
51714;SDS011;39115;59.332;18.034;2023-02-27T05:07:08;0.95;;;0.32;;
51714;SDS011;39115;59.332;18.034;2023-02-27T05:09:42;1.70;;;1.05;;
51714;SDS011;39115;59.332;18.034;2023-02-27T05:17:24;2.22;;;0.40;;
51714;SDS011;39115;59.332;18.034;2023-02-27T05:19:50;0.95;;;0.47;;
51714;SDS011;39115;59.332;18.034;2023-02-27T05:22:27;2.33;;;0.40;;
51714;SDS011;39115;59.332;18.034;2023-02-27T05:27:43;4.05;;;1.20;;
51714;SDS011;39115;59.332;18.034;2023-02-27T05:30:28;3.00;;;0.30;;
51714;SDS011;39115;59.332;18.034;2023-02-27T05:32:55;3.10;;;0.40;;
51714;SDS011;39115;59.332;18.034;2023-02-27T05:35:28;4.50;;;0.80;;
51714;SDS011;39115;59.332;18.034;2023-02-27T05:38:01;1.30;;;0.40;;
51714;SDS011;39115;59.332;18.034;2023-02-27T05:40:25;1.05;;;0.40;;
51714;SDS011;39115;59.332;18.034;2023-02-27T05:45:36;1.15;;;0.35;;
51714;SDS011;39115;59.332;18.034;2023-02-27T05:47:59;1.80;;;0.30;;
51714;SDS011;39115;59.332;18.034;2023-02-27T05:50:27;1.35;;;0.40;;
51714;SDS011;39115;59.332;18.034;2023-02-27T05:52:50;2.60;;;0.60;;
51714;SDS011;39115;59.332;18.034;2023-02-27T05:55:18;1.63;;;0.40;;
51714;SDS011;39115;59.332;18.034;2023-02-27T05:57:49;2.92;;;0.40;;
51714;SDS011;39115;59.332;18.034;2023-02-27T06:00:15;4.70;;;0.35;;
51714;SDS011;39115;59.332;18.034;2023-02-27T06:02:41;2.75;;;0.40;;
51714;SDS011;39115;59.332;18.034;2023-02-27T06:05:04;1.40;;;0.40;;
51714;SDS011;39115;59.332;18.034;2023-02-27T06:07:24;4.18;;;0.40;;
51714;SDS011;39115;59.332;18.034;2023-02-27T06:09:45;3.00;;;0.65;;
51714;SDS011;39115;59.332;18.034;2023-02-27T06:12:06;1.00;;;0.40;;
51714;SDS011;39115;59.332;18.034;2023-02-27T06:14:27;1.27;;;0.40;;
51714;SDS011;39115;59.332;18.034;2023-02-27T06:16:47;2.28;;;0.45;;
51714;SDS011;39115;59.332;18.034;2023-02-27T06:19:08;5.93;;;0.50;;
51714;SDS011;39115;59.332;18.034;2023-02-27T06:21:28;1.75;;;0.30;;
51714;SDS011;39115;59.332;18.034;2023-02-27T06:23:49;2.72;;;0.98;;
51714;SDS011;39115;59.332;18.034;2023-02-27T06:26:09;2.45;;;0.30;;
51714;SDS011;39115;59.332;18.034;2023-02-27T06:28:33;2.00;;;0.40;;
51714;SDS011;39115;59.332;18.034;2023-02-27T06:30:54;2.45;;;0.50;;
51714;SDS011;39115;59.332;18.034;2023-02-27T06:33:16;1.70;;;0.40;;
51714;SDS011;39115;59.332;18.034;2023-02-27T06:35:37;1.60;;;0.40;;
51714;SDS011;39115;59.332;18.034;2023-02-27T06:37:57;1.17;;;0.55;;
51714;SDS011;39115;59.332;18.034;2023-02-27T06:40:18;1.38;;;0.50;;
51714;SDS011;39115;59.332;18.034;2023-02-27T06:42:39;2.25;;;0.30;;
51714;SDS011;39115;59.332;18.034;2023-02-27T06:45:01;2.97;;;0.40;;
51714;SDS011;39115;59.332;18.034;2023-02-27T06:47:21;2.60;;;0.40;;
51714;SDS011;39115;59.332;18.034;2023-02-27T06:49:42;2.53;;;0.43;;
51714;SDS011;39115;59.332;18.034;2023-02-27T06:52:02;2.30;;;0.40;;
51714;SDS011;39115;59.332;18.034;2023-02-27T06:54:23;1.42;;;0.40;;
51714;SDS011;39115;59.332;18.034;2023-02-27T06:56:43;1.60;;;0.22;;
51714;SDS011;39115;59.332;18.034;2023-02-27T06:59:04;0.93;;;0.43;;
51714;SDS011;39115;59.332;18.034;2023-02-27T07:01:24;2.25;;;0.43;;
51714;SDS011;39115;59.332;18.034;2023-02-27T07:03:45;0.70;;;0.20;;
51714;SDS011;39115;59.332;18.034;2023-02-27T07:06:05;0.95;;;0.30;;
51714;SDS011;39115;59.332;18.034;2023-02-27T07:08:26;0.65;;;0.20;;
51714;SDS011;39115;59.332;18.034;2023-02-27T07:10:47;2.13;;;0.40;;
51714;SDS011;39115;59.332;18.034;2023-02-27T07:13:08;1.83;;;0.35;;
51714;SDS011;39115;59.332;18.034;2023-02-27T07:15:28;2.15;;;0.22;;
51714;SDS011;39115;59.332;18.034;2023-02-27T07:17:49;1.17;;;0.30;;
51714;SDS011;39115;59.332;18.034;2023-02-27T07:20:09;2.15;;;0.52;;
51714;SDS011;39115;59.332;18.034;2023-02-27T07:22:31;1.95;;;0.60;;
51714;SDS011;39115;59.332;18.034;2023-02-27T07:24:51;4.35;;;1.00;;
51714;SDS011;39115;59.332;18.034;2023-02-27T07:27:12;1.35;;;0.40;;
51714;SDS011;39115;59.332;18.034;2023-02-27T07:29:32;1.17;;;0.40;;
51714;SDS011;39115;59.332;18.034;2023-02-27T07:31:55;2.55;;;0.32;;
51714;SDS011;39115;59.332;18.034;2023-02-27T07:34:15;2.47;;;0.40;;
51714;SDS011;39115;59.332;18.034;2023-02-27T07:36:36;3.10;;;0.30;;
51714;SDS011;39115;59.332;18.034;2023-02-27T07:38:57;1.45;;;0.30;;
51714;SDS011;39115;59.332;18.034;2023-02-27T07:41:17;2.45;;;0.40;;
51714;SDS011;39115;59.332;18.034;2023-02-27T07:43:38;0.70;;;0.30;;
51714;SDS011;39115;59.332;18.034;2023-02-27T07:45:58;1.60;;;0.25;;
51714;SDS011;39115;59.332;18.034;2023-02-27T07:48:19;1.40;;;0.40;;
51714;SDS011;39115;59.332;18.034;2023-02-27T07:50:40;1.02;;;0.40;;
51714;SDS011;39115;59.332;18.034;2023-02-27T07:53:00;2.28;;;0.38;;
51714;SDS011;39115;59.332;18.034;2023-02-27T07:55:21;0.50;;;0.30;;
51714;SDS011;39115;59.332;18.034;2023-02-27T07:57:43;0.90;;;0.30;;
51714;SDS011;39115;59.332;18.034;2023-02-27T08:00:04;1.20;;;0.38;;
51714;SDS011;39115;59.332;18.034;2023-02-27T08:02:25;3.97;;;0.30;;
51714;SDS011;39115;59.332;18.034;2023-02-27T08:04:46;2.45;;;0.30;;
51714;SDS011;39115;59.332;18.034;2023-02-27T08:07:07;2.35;;;0.30;;
51714;SDS011;39115;59.332;18.034;2023-02-27T08:09:27;1.23;;;0.30;;
51714;SDS011;39115;59.332;18.034;2023-02-27T08:11:49;4.30;;;0.30;;
51714;SDS011;39115;59.332;18.034;2023-02-27T08:14:10;0.55;;;0.25;;
51714;SDS011;39115;59.332;18.034;2023-02-27T08:16:30;2.45;;;0.30;;
51714;SDS011;39115;59.332;18.034;2023-02-27T08:18:51;0.60;;;0.30;;
51714;SDS011;39115;59.332;18.034;2023-02-27T08:21:12;1.10;;;0.30;;
51714;SDS011;39115;59.332;18.034;2023-02-27T08:23:32;1.92;;;0.30;;
51714;SDS011;39115;59.332;18.034;2023-02-27T08:25:53;1.73;;;0.30;;
51714;SDS011;39115;59.332;18.034;2023-02-27T08:28:14;0.70;;;0.30;;
51714;SDS011;39115;59.332;18.034;2023-02-27T08:30:34;0.93;;;0.30;;
51714;SDS011;39115;59.332;18.034;2023-02-27T08:32:55;0.88;;;0.30;;
51714;SDS011;39115;59.332;18.034;2023-02-27T08:35:15;1.70;;;0.40;;
51714;SDS011;39115;59.332;18.034;2023-02-27T08:37:45;1.23;;;0.30;;
51714;SDS011;39115;59.332;18.034;2023-02-27T08:40:07;0.75;;;0.30;;
51714;SDS011;39115;59.332;18.034;2023-02-27T08:42:29;1.85;;;0.40;;
51714;SDS011;39115;59.332;18.034;2023-02-27T08:44:50;0.77;;;0.30;;
51714;SDS011;39115;59.332;18.034;2023-02-27T08:47:10;0.70;;;0.50;;
51714;SDS011;39115;59.332;18.034;2023-02-27T08:49:31;2.25;;;0.22;;
51714;SDS011;39115;59.332;18.034;2023-02-27T08:51:52;1.17;;;0.20;;
51714;SDS011;39115;59.332;18.034;2023-02-27T08:54:12;1.00;;;0.20;;
51714;SDS011;39115;59.332;18.034;2023-02-27T08:56:33;1.42;;;0.20;;
51714;SDS011;39115;59.332;18.034;2023-02-27T08:58:54;1.20;;;0.20;;
51714;SDS011;39115;59.332;18.034;2023-02-27T09:01:15;1.60;;;0.10;;
51714;SDS011;39115;59.332;18.034;2023-02-27T09:03:35;0.98;;;0.30;;
51714;SDS011;39115;59.332;18.034;2023-02-27T09:05:56;0.65;;;0.30;;
51714;SDS011;39115;59.332;18.034;2023-02-27T09:08:17;0.98;;;0.20;;
51714;SDS011;39115;59.332;18.034;2023-02-27T09:10:37;0.90;;;0.30;;
51714;SDS011;39115;59.332;18.034;2023-02-27T09:12:58;0.75;;;0.20;;
51714;SDS011;39115;59.332;18.034;2023-02-27T09:15:19;0.50;;;0.30;;
51714;SDS011;39115;59.332;18.034;2023-02-27T09:17:39;0.95;;;0.20;;
51714;SDS011;39115;59.332;18.034;2023-02-27T09:20:00;0.68;;;0.30;;
51714;SDS011;39115;59.332;18.034;2023-02-27T09:22:20;1.67;;;0.20;;
51714;SDS011;39115;59.332;18.034;2023-02-27T09:24:41;1.30;;;0.30;;
51714;SDS011;39115;59.332;18.034;2023-02-27T09:27:01;0.52;;;0.17;;
51714;SDS011;39115;59.332;18.034;2023-02-27T09:29:22;1.20;;;0.20;;
51714;SDS011;39115;59.332;18.034;2023-02-27T09:31:42;1.60;;;0.20;;
51714;SDS011;39115;59.332;18.034;2023-02-27T09:34:03;1.42;;;0.38;;
51714;SDS011;39115;59.332;18.034;2023-02-27T09:36:24;0.88;;;0.30;;
51714;SDS011;39115;59.332;18.034;2023-02-27T09:38:44;0.40;;;0.10;;
51714;SDS011;39115;59.332;18.034;2023-02-27T09:41:05;1.75;;;0.20;;
51714;SDS011;39115;59.332;18.034;2023-02-27T09:45:57;0.57;;;0.10;;
51714;SDS011;39115;59.332;18.034;2023-02-27T09:48:23;0.63;;;0.10;;
51714;SDS011;39115;59.332;18.034;2023-02-27T09:50:48;1.33;;;0.30;;
51714;SDS011;39115;59.332;18.034;2023-02-27T09:53:13;0.40;;;0.20;;
51714;SDS011;39115;59.332;18.034;2023-02-27T09:55:50;0.70;;;0.20;;
51714;SDS011;39115;59.332;18.034;2023-02-27T09:58:24;0.82;;;0.20;;
51714;SDS011;39115;59.332;18.034;2023-02-27T10:01:02;1.25;;;0.20;;
51714;SDS011;39115;59.332;18.034;2023-02-27T10:11:37;2.63;;;0.30;;
51714;SDS011;39115;59.332;18.034;2023-02-27T10:14:22;0.50;;;0.20;;
51714;SDS011;39115;59.332;18.034;2023-02-27T10:17:02;0.40;;;0.15;;
51714;SDS011;39115;59.332;18.034;2023-02-27T10:19:33;0.75;;;0.20;;
51714;SDS011;39115;59.332;18.034;2023-02-27T10:21:57;1.67;;;0.10;;
51714;SDS011;39115;59.332;18.034;2023-02-27T10:24:26;0.57;;;0.10;;
51714;SDS011;39115;59.332;18.034;2023-02-27T10:26:49;1.85;;;0.25;;
51714;SDS011;39115;59.332;18.034;2023-02-27T10:29:33;0.40;;;0.10;;
51714;SDS011;39115;59.332;18.034;2023-02-27T10:32:06;0.63;;;0.17;;
51714;SDS011;39115;59.332;18.034;2023-02-27T10:34:33;0.52;;;0.10;;
51714;SDS011;39115;59.332;18.034;2023-02-27T10:37:01;6.50;;;0.32;;
51714;SDS011;39115;59.332;18.034;2023-02-27T10:39:24;1.73;;;0.30;;
51714;SDS011;39115;59.332;18.034;2023-02-27T10:41:45;3.03;;;0.20;;
51714;SDS011;39115;59.332;18.034;2023-02-27T10:44:06;0.40;;;0.10;;
51714;SDS011;39115;59.332;18.034;2023-02-27T10:46:31;2.75;;;0.30;;
51714;SDS011;39115;59.332;18.034;2023-02-27T10:48:56;1.60;;;0.20;;
51714;SDS011;39115;59.332;18.034;2023-02-27T10:51:29;0.55;;;0.20;;
51714;SDS011;39115;59.332;18.034;2023-02-27T10:54:38;0.98;;;0.20;;
51714;SDS011;39115;59.332;18.034;2023-02-27T10:56:43;0.88;;;0.20;;
51714;SDS011;39115;59.332;18.034;2023-02-27T10:59:15;0.40;;;0.20;;
51714;SDS011;39115;59.332;18.034;2023-02-27T11:01:48;0.35;;;0.17;;
51714;SDS011;39115;59.332;18.034;2023-02-27T11:04:12;0.63;;;0.10;;
51714;SDS011;39115;59.332;18.034;2023-02-27T11:06:33;0.30;;;0.10;;
51714;SDS011;39115;59.332;18.034;2023-02-27T11:09:28;2.22;;;0.20;;
51714;SDS011;39115;59.332;18.034;2023-02-27T11:11:43;0.47;;;0.10;;
51714;SDS011;39115;59.332;18.034;2023-02-27T11:16:48;2.28;;;0.30;;
51714;SDS011;39115;59.332;18.034;2023-02-27T11:19:22;5.30;;;0.10;;
51714;SDS011;39115;59.332;18.034;2023-02-27T11:24:39;0.28;;;0.10;;
51714;SDS011;39115;59.332;18.034;2023-02-27T11:27:03;0.50;;;0.20;;
51714;SDS011;39115;59.332;18.034;2023-02-27T11:29:36;0.82;;;0.15;;
51714;SDS011;39115;59.332;18.034;2023-02-27T11:31:59;2.45;;;0.10;;
51714;SDS011;39115;59.332;18.034;2023-02-27T11:34:26;2.83;;;0.22;;
51714;SDS011;39115;59.332;18.034;2023-02-27T11:36:50;1.00;;;0.20;;
51714;SDS011;39115;59.332;18.034;2023-02-27T11:39:22;3.40;;;0.32;;
51714;SDS011;39115;59.332;18.034;2023-02-27T11:41:46;1.48;;;0.20;;
51714;SDS011;39115;59.332;18.034;2023-02-27T11:44:08;1.10;;;0.20;;
51714;SDS011;39115;59.332;18.034;2023-02-27T11:46:36;0.90;;;0.30;;
51714;SDS011;39115;59.332;18.034;2023-02-27T11:59:39;2.70;;;0.20;;
51714;SDS011;39115;59.332;18.034;2023-02-27T12:06:51;0.68;;;0.10;;
51714;SDS011;39115;59.332;18.034;2023-02-27T12:09:33;0.28;;;0.20;;
51714;SDS011;39115;59.332;18.034;2023-02-27T12:12:00;1.05;;;0.17;;
51714;SDS011;39115;59.332;18.034;2023-02-27T12:14:39;1.17;;;0.30;;
51714;SDS011;39115;59.332;18.034;2023-02-27T12:22:43;0.55;;;0.10;;
51714;SDS011;39115;59.332;18.034;2023-02-27T12:25:11;2.10;;;0.20;;
51714;SDS011;39115;59.332;18.034;2023-02-27T12:30:15;0.30;;;0.20;;
51714;SDS011;39115;59.332;18.034;2023-02-27T12:35:21;0.50;;;0.10;;
51714;SDS011;39115;59.332;18.034;2023-02-27T12:37:46;0.30;;;0.10;;
51714;SDS011;39115;59.332;18.034;2023-02-27T12:40:12;1.35;;;0.08;;
51714;SDS011;39115;59.332;18.034;2023-02-27T13:02:03;4.45;;;0.30;;
51714;SDS011;39115;59.332;18.034;2023-02-27T13:04:59;0.70;;;0.38;;
51714;SDS011;39115;59.332;18.034;2023-02-27T13:07:33;0.17;;;0.10;;
51714;SDS011;39115;59.332;18.034;2023-02-27T13:10:02;2.33;;;0.20;;
51714;SDS011;39115;59.332;18.034;2023-02-27T13:12:39;1.40;;;0.10;;
51714;SDS011;39115;59.332;18.034;2023-02-27T13:15:17;3.00;;;0.10;;
51714;SDS011;39115;59.332;18.034;2023-02-27T13:20:31;0.40;;;0.10;;
51714;SDS011;39115;59.332;18.034;2023-02-27T13:23:17;1.90;;;0.17;;
51714;SDS011;39115;59.332;18.034;2023-02-27T13:25:42;0.40;;;0.10;;
51714;SDS011;39115;59.332;18.034;2023-02-27T13:28:10;0.63;;;0.20;;
51714;SDS011;39115;59.332;18.034;2023-02-27T13:30:39;1.05;;;0.10;;
51714;SDS011;39115;59.332;18.034;2023-02-27T13:33:37;0.32;;;0.10;;
51714;SDS011;39115;59.332;18.034;2023-02-27T13:36:23;1.23;;;0.10;;
51714;SDS011;39115;59.332;18.034;2023-02-27T13:38:50;0.88;;;0.10;;
51714;SDS011;39115;59.332;18.034;2023-02-27T13:43:39;0.80;;;0.30;;
51714;SDS011;39115;59.332;18.034;2023-02-27T13:46:00;0.28;;;0.13;;
51714;SDS011;39115;59.332;18.034;2023-02-27T13:48:39;0.85;;;0.30;;
51714;SDS011;39115;59.332;18.034;2023-02-27T13:51:00;0.20;;;0.05;;
51714;SDS011;39115;59.332;18.034;2023-02-27T13:53:21;0.10;;;0.10;;
51714;SDS011;39115;59.332;18.034;2023-02-27T13:55:43;1.00;;;0.10;;
51714;SDS011;39115;59.332;18.034;2023-02-27T13:58:04;0.05;;;0.00;;
51714;SDS011;39115;59.332;18.034;2023-02-27T14:00:25;0.08;;;0.00;;
51714;SDS011;39115;59.332;18.034;2023-02-27T14:02:49;5.07;;;0.10;;
51714;SDS011;39115;59.332;18.034;2023-02-27T14:05:13;1.90;;;0.08;;
51714;SDS011;39115;59.332;18.034;2023-02-27T14:10:25;2.80;;;0.10;;
51714;SDS011;39115;59.332;18.034;2023-02-27T14:12:48;2.55;;;0.10;;
51714;SDS011;39115;59.332;18.034;2023-02-27T14:17:42;2.13;;;0.20;;
51714;SDS011;39115;59.332;18.034;2023-02-27T14:22:31;1.25;;;0.20;;
51714;SDS011;39115;59.332;18.034;2023-02-27T14:24:57;0.60;;;0.20;;
51714;SDS011;39115;59.332;18.034;2023-02-27T14:27:29;0.50;;;0.15;;
51714;SDS011;39115;59.332;18.034;2023-02-27T14:30:03;1.00;;;0.03;;
51714;SDS011;39115;59.332;18.034;2023-02-27T14:32:30;0.47;;;0.00;;
51714;SDS011;39115;59.332;18.034;2023-02-27T14:34:53;0.85;;;0.10;;
51714;SDS011;39115;59.332;18.034;2023-02-27T14:37:15;0.38;;;0.08;;
51714;SDS011;39115;59.332;18.034;2023-02-27T14:39:40;0.30;;;0.10;;
51714;SDS011;39115;59.332;18.034;2023-02-27T14:42:14;0.90;;;0.10;;
51714;SDS011;39115;59.332;18.034;2023-02-27T14:44:58;1.35;;;0.20;;
51714;SDS011;39115;59.332;18.034;2023-02-27T14:47:23;1.67;;;0.10;;
51714;SDS011;39115;59.332;18.034;2023-02-27T14:49:56;0.43;;;0.10;;
51714;SDS011;39115;59.332;18.034;2023-02-27T14:54:41;0.10;;;0.00;;
51714;SDS011;39115;59.332;18.034;2023-02-27T14:57:02;1.27;;;0.08;;
51714;SDS011;39115;59.332;18.034;2023-02-27T14:59:29;0.93;;;0.10;;
51714;SDS011;39115;59.332;18.034;2023-02-27T15:02:00;1.07;;;0.00;;
51714;SDS011;39115;59.332;18.034;2023-02-27T15:04:25;0.28;;;0.00;;
51714;SDS011;39115;59.332;18.034;2023-02-27T15:06:49;0.10;;;0.00;;
51714;SDS011;39115;59.332;18.034;2023-02-27T15:09:17;0.22;;;0.00;;
51714;SDS011;39115;59.332;18.034;2023-02-27T15:11:46;0.13;;;0.00;;
51714;SDS011;39115;59.332;18.034;2023-02-27T15:14:07;0.17;;;0.00;;
51714;SDS011;39115;59.332;18.034;2023-02-27T15:16:29;0.10;;;0.00;;
51714;SDS011;39115;59.332;18.034;2023-02-27T15:18:54;0.57;;;0.00;;
51714;SDS011;39115;59.332;18.034;2023-02-27T15:21:17;0.10;;;0.00;;
51714;SDS011;39115;59.332;18.034;2023-02-27T15:23:39;0.20;;;0.00;;
51714;SDS011;39115;59.332;18.034;2023-02-27T15:26:00;0.15;;;0.00;;
51714;SDS011;39115;59.332;18.034;2023-02-27T15:28:22;0.13;;;0.00;;
51714;SDS011;39115;59.332;18.034;2023-02-27T15:30:48;0.65;;;0.00;;
51714;SDS011;39115;59.332;18.034;2023-02-27T15:33:12;0.98;;;0.10;;
51714;SDS011;39115;59.332;18.034;2023-02-27T15:35:35;1.88;;;0.10;;
51714;SDS011;39115;59.332;18.034;2023-02-27T15:38:00;2.92;;;0.10;;
51714;SDS011;39115;59.332;18.034;2023-02-27T15:40:22;1.85;;;0.10;;
51714;SDS011;39115;59.332;18.034;2023-02-27T15:42:47;0.45;;;0.10;;
51714;SDS011;39115;59.332;18.034;2023-02-27T15:45:09;0.90;;;0.10;;
51714;SDS011;39115;59.332;18.034;2023-02-27T15:47:36;1.85;;;0.10;;
51714;SDS011;39115;59.332;18.034;2023-02-27T15:50:00;0.28;;;0.10;;
51714;SDS011;39115;59.332;18.034;2023-02-27T15:52:30;0.85;;;0.15;;
51714;SDS011;39115;59.332;18.034;2023-02-27T15:54:59;0.40;;;0.30;;
51714;SDS011;39115;59.332;18.034;2023-02-27T15:57:22;0.77;;;0.10;;
51714;SDS011;39115;59.332;18.034;2023-02-27T15:59:43;1.60;;;0.10;;
51714;SDS011;39115;59.332;18.034;2023-02-27T16:02:04;0.10;;;0.10;;
51714;SDS011;39115;59.332;18.034;2023-02-27T16:04:31;0.98;;;0.20;;
51714;SDS011;39115;59.332;18.034;2023-02-27T16:06:58;0.20;;;0.10;;
51714;SDS011;39115;59.332;18.034;2023-02-27T16:09:32;0.20;;;0.10;;
51714;SDS011;39115;59.332;18.034;2023-02-27T16:14:44;0.68;;;0.17;;
51714;SDS011;39115;59.332;18.034;2023-02-27T16:17:19;0.70;;;0.10;;
51714;SDS011;39115;59.332;18.034;2023-02-27T16:19:47;0.25;;;0.10;;
51714;SDS011;39115;59.332;18.034;2023-02-27T16:22:14;1.02;;;0.15;;
51714;SDS011;39115;59.332;18.034;2023-02-27T16:24:37;0.55;;;0.20;;
51714;SDS011;39115;59.332;18.034;2023-02-27T16:26:58;0.88;;;0.20;;
51714;SDS011;39115;59.332;18.034;2023-02-27T16:31:56;3.97;;;0.20;;
51714;SDS011;39115;59.332;18.034;2023-02-27T16:34:31;0.60;;;0.30;;
51714;SDS011;39115;59.332;18.034;2023-02-27T16:37:02;0.47;;;0.08;;
51714;SDS011;39115;59.332;18.034;2023-02-27T16:39:24;0.20;;;0.10;;
51714;SDS011;39115;59.332;18.034;2023-02-27T16:41:45;0.85;;;0.13;;
51714;SDS011;39115;59.332;18.034;2023-02-27T16:44:05;2.67;;;0.20;;
51714;SDS011;39115;59.332;18.034;2023-02-27T16:46:26;1.90;;;0.28;;
51714;SDS011;39115;59.332;18.034;2023-02-27T16:48:52;0.55;;;0.20;;
51714;SDS011;39115;59.332;18.034;2023-02-27T16:51:19;0.80;;;0.20;;